Lawrence, Ohio
Current Conditions -  °F | °C
As of 10:51 PM on Wednesday 26 Nov 2014 (Local Time) from KCAK Reporting Station
Overcast Overcast  
Wind Chill: 29°   Ceiling: 3700
Heat Index: 34°   Visibility: 9mi
Dew Point: 25°   Wind: 6mph
Humidity: 70%   Direction: 280°W
Pressure: 30.01"   Gusts: NA
Location:  40.8849°N, 81.5861°W
Report Text: KCAK 270351Z 28005KT 9SM OVC037 01/M04 A3001 RMK AO2 SLP173 T00111039
Loading
Personal Weather Stations






























Interactive Weather Map New forecast layout! Learn more

10-Day Weather Forecast

Advertisements
Track Severe Weather on mobile